sensor_id;sensor_type;location;lat;lon;timestamp;pressure;altitude;pressure_sealevel;temperature;humidity
8049;BME280;20935;42.660;23.342;2023-05-19T00:02:25;94964.03;;;19.23;82.30
8049;BME280;20935;42.660;23.342;2023-05-19T00:05:17;94961.31;;;19.23;82.27
8049;BME280;20935;42.660;23.342;2023-05-19T00:08:06;94959.84;;;19.22;82.16
8049;BME280;20935;42.660;23.342;2023-05-19T00:10:53;94962.97;;;19.21;82.19
8049;BME280;20935;42.660;23.342;2023-05-19T00:13:40;94959.84;;;19.22;81.99
8049;BME280;20935;42.660;23.342;2023-05-19T00:16:29;94959.50;;;19.20;82.22
8049;BME280;20935;42.660;23.342;2023-05-19T00:19:14;94963.41;;;19.19;82.23
8049;BME280;20935;42.660;23.342;2023-05-19T00:22:00;94942.91;;;19.18;82.21
8049;BME280;20935;42.660;23.342;2023-05-19T00:24:46;94946.81;;;19.17;82.25
8049;BME280;20935;42.660;23.342;2023-05-19T00:27:31;94951.06;;;19.18;82.33
8049;BME280;20935;42.660;23.342;2023-05-19T00:30:18;94946.34;;;19.19;82.15
8049;BME280;20935;42.660;23.342;2023-05-19T00:33:05;94947.88;;;19.20;82.12
8049;BME280;20935;42.660;23.342;2023-05-19T00:35:51;94947.88;;;19.20;82.26
8049;BME280;20935;42.660;23.342;2023-05-19T00:38:36;94944.72;;;19.21;82.16
8049;BME280;20935;42.660;23.342;2023-05-19T00:41:22;94946.69;;;19.21;81.94
8049;BME280;20935;42.660;23.342;2023-05-19T00:44:14;94941.69;;;19.19;82.06
8049;BME280;20935;42.660;23.342;2023-05-19T00:46:59;94936.72;;;19.18;81.99
8049;BME280;20935;42.660;23.342;2023-05-19T00:49:45;94934.56;;;19.13;82.21
8049;BME280;20935;42.660;23.342;2023-05-19T00:52:31;94940.00;;;19.13;82.28
8049;BME280;20935;42.660;23.342;2023-05-19T00:55:16;94932.63;;;19.13;82.48
8049;BME280;20935;42.660;23.342;2023-05-19T00:58:03;94941.53;;;19.14;82.14
8049;BME280;20935;42.660;23.342;2023-05-19T01:00:51;94941.06;;;19.15;81.94
8049;BME280;20935;42.660;23.342;2023-05-19T01:03:39;94934.88;;;19.15;82.05
8049;BME280;20935;42.660;23.342;2023-05-19T01:06:26;94938.34;;;19.15;81.99
8049;BME280;20935;42.660;23.342;2023-05-19T01:09:12;94932.63;;;19.13;81.86
8049;BME280;20935;42.660;23.342;2023-05-19T01:11:58;94936.09;;;19.14;82.03
8049;BME280;20935;42.660;23.342;2023-05-19T01:14:44;94941.94;;;19.12;82.00
8049;BME280;20935;42.660;23.342;2023-05-19T01:17:39;94943.91;;;19.12;82.29
8049;BME280;20935;42.660;23.342;2023-05-19T01:20:32;94943.16;;;19.11;82.01
8049;BME280;20935;42.660;23.342;2023-05-19T01:23:32;94941.94;;;19.12;82.11
8049;BME280;20935;42.660;23.342;2023-05-19T01:26:44;94945.88;;;19.11;82.04
8049;BME280;20935;42.660;23.342;2023-05-19T01:29:41;94943.16;;;19.11;81.93
8049;BME280;20935;42.660;23.342;2023-05-19T01:32:40;94947.09;;;19.10;81.96
8049;BME280;20935;42.660;23.342;2023-05-19T01:35:27;94934.69;;;19.09;82.03
8049;BME280;20935;42.660;23.342;2023-05-19T01:38:15;94939.38;;;19.09;81.98
8049;BME280;20935;42.660;23.342;2023-05-19T01:41:02;94941.66;;;19.10;81.98
8049;BME280;20935;42.660;23.342;2023-05-19T01:43:48;94948.28;;;19.09;81.79
8049;BME280;20935;42.660;23.342;2023-05-19T01:46:35;94942.84;;;19.09;81.82
8049;BME280;20935;42.660;23.342;2023-05-19T01:49:22;94947.50;;;19.09;81.68
8049;BME280;20935;42.660;23.342;2023-05-19T01:52:08;94944.03;;;19.08;81.80
8049;BME280;20935;42.660;23.342;2023-05-19T01:54:54;94943.59;;;19.10;81.74
8049;BME280;20935;42.660;23.342;2023-05-19T01:57:46;94942.84;;;19.09;81.82
8049;BME280;20935;42.660;23.342;2023-05-19T02:00:44;94948.56;;;19.11;81.68
8049;BME280;20935;42.660;23.342;2023-05-19T02:03:48;94943.16;;;19.11;81.69
8049;BME280;20935;42.660;23.342;2023-05-19T02:06:42;94946.31;;;19.10;81.58
8049;BME280;20935;42.660;23.342;2023-05-19T02:09:37;94951.00;;;19.09;81.76
8049;BME280;20935;42.660;23.342;2023-05-19T02:12:27;94947.09;;;19.10;81.52
8049;BME280;20935;42.660;23.342;2023-05-19T02:15:19;94948.28;;;19.09;81.59
8049;BME280;20935;42.660;23.342;2023-05-19T02:18:07;94952.94;;;19.09;81.43
8049;BME280;20935;42.660;23.342;2023-05-19T02:20:54;94957.63;;;19.08;81.56
8049;BME280;20935;42.660;23.342;2023-05-19T02:23:41;94951.00;;;19.09;81.53
8049;BME280;20935;42.660;23.342;2023-05-19T02:26:27;94947.50;;;19.09;81.45
8049;BME280;20935;42.660;23.342;2023-05-19T02:29:12;94948.72;;;19.08;81.48
8049;BME280;20935;42.660;23.342;2023-05-19T02:31:59;94956.09;;;19.07;81.29
8049;BME280;20935;42.660;23.342;2023-05-19T02:34:44;94956.09;;;19.07;81.31
8049;BME280;20935;42.660;23.342;2023-05-19T02:37:30;94961.53;;;19.07;81.34
8049;BME280;20935;42.660;23.342;2023-05-19T02:40:17;94965.47;;;19.06;81.39
8049;BME280;20935;42.660;23.342;2023-05-19T02:43:02;94957.31;;;19.06;81.39
8049;BME280;20935;42.660;23.342;2023-05-19T02:45:48;94959.56;;;19.08;81.17
8049;BME280;20935;42.660;23.342;2023-05-19T02:48:33;94952.75;;;19.03;81.20
8049;BME280;20935;42.660;23.342;2023-05-19T02:51:18;94959.41;;;19.02;81.44
8049;BME280;20935;42.660;23.342;2023-05-19T02:54:04;94971.31;;;19.05;81.32
8049;BME280;20935;42.660;23.342;2023-05-19T02:56:52;94966.31;;;19.03;81.23
8049;BME280;20935;42.660;23.342;2023-05-19T02:59:38;94959.69;;;19.04;81.32
8049;BME280;20935;42.660;23.342;2023-05-19T03:02:24;94958.94;;;19.04;81.33
8049;BME280;20935;42.660;23.342;2023-05-19T03:05:09;94971.75;;;19.03;81.27
8049;BME280;20935;42.660;23.342;2023-05-19T03:07:55;94974.03;;;19.05;81.21
8049;BME280;20935;42.660;23.342;2023-05-19T03:10:40;94971.31;;;19.05;81.01
8049;BME280;20935;42.660;23.342;2023-05-19T03:13:27;94973.72;;;19.03;81.12
8049;BME280;20935;42.660;23.342;2023-05-19T03:16:12;94971.75;;;19.03;81.19
8049;BME280;20935;42.660;23.342;2023-05-19T03:18:58;94967.09;;;19.04;81.13
8049;BME280;20935;42.660;23.342;2023-05-19T03:21:43;94978.72;;;19.04;81.07
8049;BME280;20935;42.660;23.342;2023-05-19T03:24:29;94969.81;;;19.04;81.02
8049;BME280;20935;42.660;23.342;2023-05-19T03:27:15;94974.03;;;19.05;80.95
8049;BME280;20935;42.660;23.342;2023-05-19T03:30:03;94976.31;;;19.06;80.83
8049;BME280;20935;42.660;23.342;2023-05-19T03:32:49;94979.47;;;19.05;80.83
8049;BME280;20935;42.660;23.342;2023-05-19T03:35:34;94980.53;;;19.07;80.61
8049;BME280;20935;42.660;23.342;2023-05-19T03:38:20;94977.81;;;19.07;80.46
8049;BME280;20935;42.660;23.342;2023-05-19T03:41:05;94975.44;;;19.09;80.56
8049;BME280;20935;42.660;23.342;2023-05-19T03:43:51;94971.94;;;19.09;80.57
8049;BME280;20935;42.660;23.342;2023-05-19T03:46:38;94979.34;;;19.08;80.26
8049;BME280;20935;42.660;23.342;2023-05-19T03:49:23;94976.19;;;19.10;80.33
8049;BME280;20935;42.660;23.342;2023-05-19T03:52:09;94977.69;;;19.11;80.20
8049;BME280;20935;42.660;23.342;2023-05-19T03:54:55;94983.13;;;19.11;80.08
8049;BME280;20935;42.660;23.342;2023-05-19T03:57:41;94980.41;;;19.11;80.10
8049;BME280;20935;42.660;23.342;2023-05-19T04:00:27;94990.53;;;19.10;80.12
8049;BME280;20935;42.660;23.342;2023-05-19T04:03:14;94988.13;;;19.12;80.02
8049;BME280;20935;42.660;23.342;2023-05-19T04:05:59;94988.44;;;19.14;79.97
8049;BME280;20935;42.660;23.342;2023-05-19T04:08:44;94988.88;;;19.13;79.80
8049;BME280;20935;42.660;23.342;2023-05-19T04:11:29;94985.72;;;19.14;79.94
8049;BME280;20935;42.660;23.342;2023-05-19T04:14:15;94985.72;;;19.14;79.86
8049;BME280;20935;42.660;23.342;2023-05-19T04:17:01;94986.78;;;19.17;79.80
8049;BME280;20935;42.660;23.342;2023-05-19T04:19:47;94992.97;;;19.17;79.79
8049;BME280;20935;42.660;23.342;2023-05-19T04:22:32;94993.75;;;19.18;79.57
8049;BME280;20935;42.660;23.342;2023-05-19T04:25:18;95001.44;;;19.19;79.73
8049;BME280;20935;42.660;23.342;2023-05-19T04:28:04;94997.53;;;19.20;79.68
8049;BME280;20935;42.660;23.342;2023-05-19T04:30:50;94997.53;;;19.20;79.53
8049;BME280;20935;42.660;23.342;2023-05-19T04:33:35;95001.75;;;19.21;79.36
8049;BME280;20935;42.660;23.342;2023-05-19T04:36:22;95006.44;;;19.21;79.47
8049;BME280;20935;42.660;23.342;2023-05-19T04:39:08;95013.38;;;19.22;79.31
8049;BME280;20935;42.660;23.342;2023-05-19T04:41:55;95006.75;;;19.23;79.35
8049;BME280;20935;42.660;23.342;2023-05-19T04:44:40;95009.44;;;19.23;79.20
8049;BME280;20935;42.660;23.342;2023-05-19T04:47:26;95006.75;;;19.23;79.18
8049;BME280;20935;42.660;23.342;2023-05-19T04:50:13;95010.22;;;19.23;79.09
8049;BME280;20935;42.660;23.342;2023-05-19T04:53:01;95004.34;;;19.25;79.16
8049;BME280;20935;42.660;23.342;2023-05-19T04:55:46;95011.31;;;19.26;79.23
8049;BME280;20935;42.660;23.342;2023-05-19T04:58:31;95007.38;;;19.27;79.12
8049;BME280;20935;42.660;23.342;2023-05-19T05:01:16;95008.59;;;19.26;79.03
8049;BME280;20935;42.660;23.342;2023-05-19T05:04:05;95009.34;;;19.27;79.03
8049;BME280;20935;42.660;23.342;2023-05-19T05:06:51;95011.59;;;19.28;78.68
8049;BME280;20935;42.660;23.342;2023-05-19T05:09:38;95010.84;;;19.28;79.12
8049;BME280;20935;42.660;23.342;2023-05-19T05:12:24;95010.84;;;19.28;78.98
8049;BME280;20935;42.660;23.342;2023-05-19T05:15:10;95011.19;;;19.30;79.15
8049;BME280;20935;42.660;23.342;2023-05-19T05:17:56;95014.44;;;19.24;79.20
8049;BME280;20935;42.660;23.342;2023-05-19T05:20:43;95009.78;;;19.25;79.23
8049;BME280;20935;42.660;23.342;2023-05-19T05:23:29;95005.41;;;19.28;79.01
8049;BME280;20935;42.660;23.342;2023-05-19T05:26:20;95006.19;;;19.28;79.04
8049;BME280;20935;42.660;23.342;2023-05-19T05:29:07;95012.81;;;19.27;79.15
8049;BME280;20935;42.660;23.342;2023-05-19T05:31:53;95010.84;;;19.28;79.01
8049;BME280;20935;42.660;23.342;2023-05-19T05:34:38;95007.25;;;19.31;78.65
8049;BME280;20935;42.660;23.342;2023-05-19T05:37:25;95015.41;;;19.31;78.79
8049;BME280;20935;42.660;23.342;2023-05-19T05:40:11;95009.97;;;19.31;78.73
8049;BME280;20935;42.660;23.342;2023-05-19T05:42:58;95014.31;;;19.28;78.79
8049;BME280;20935;42.660;23.342;2023-05-19T05:45:44;95013.91;;;19.30;78.79
8049;BME280;20935;42.660;23.342;2023-05-19T05:48:30;95013.13;;;19.29;78.75
8049;BME280;20935;42.660;23.342;2023-05-19T05:51:15;95018.56;;;19.29;78.78
8049;BME280;20935;42.660;23.342;2023-05-19T05:54:01;95016.91;;;19.32;78.73
8049;BME280;20935;42.660;23.342;2023-05-19T05:56:51;95022.34;;;19.32;78.85
8049;BME280;20935;42.660;23.342;2023-05-19T05:59:38;95030.50;;;19.32;78.59
8049;BME280;20935;42.660;23.342;2023-05-19T06:02:24;95027.78;;;19.32;78.65
8049;BME280;20935;42.660;23.342;2023-05-19T06:05:10;95032.78;;;19.33;78.63
8049;BME280;20935;42.660;23.342;2023-05-19T06:07:57;95039.28;;;19.36;78.52
8049;BME280;20935;42.660;23.342;2023-05-19T06:10:42;95045.47;;;19.36;78.53
8049;BME280;20935;42.660;23.342;2023-05-19T06:13:28;95042.31;;;19.38;78.53
8049;BME280;20935;42.660;23.342;2023-05-19T06:16:15;95051.22;;;19.38;78.50
8049;BME280;20935;42.660;23.342;2023-05-19T06:19:01;95034.16;;;19.38;78.33
8049;BME280;20935;42.660;23.342;2023-05-19T06:21:46;95040.38;;;19.38;78.39
8049;BME280;20935;42.660;23.342;2023-05-19T06:24:31;95042.63;;;19.40;78.22
8049;BME280;20935;42.660;23.342;2023-05-19T06:27:17;95044.16;;;19.41;78.16
8049;BME280;20935;42.660;23.342;2023-05-19T06:30:02;95041.13;;;19.39;78.24
8049;BME280;20935;42.660;23.342;2023-05-19T06:32:50;95041.44;;;19.41;78.15
8049;BME280;20935;42.660;23.342;2023-05-19T06:35:36;95040.25;;;19.42;78.08
8049;BME280;20935;42.660;23.342;2023-05-19T06:38:21;95039.03;;;19.43;78.08
8049;BME280;20935;42.660;23.342;2023-05-19T06:41:06;95047.19;;;19.43;77.90
8049;BME280;20935;42.660;23.342;2023-05-19T06:43:52;95046.47;;;19.42;78.12
8049;BME280;20935;42.660;23.342;2023-05-19T06:46:38;95045.66;;;19.42;78.03
8049;BME280;20935;42.660;23.342;2023-05-19T06:49:24;95049.91;;;19.43;77.93
8049;BME280;20935;42.660;23.342;2023-05-19T06:52:12;95035.13;;;19.44;77.86
8049;BME280;20935;42.660;23.342;2023-05-19T06:54:58;95048.72;;;19.44;77.77
8049;BME280;20935;42.660;23.342;2023-05-19T06:57:43;95046.00;;;19.44;78.00
8049;BME280;20935;42.660;23.342;2023-05-19T07:00:28;95054.16;;;19.44;77.49
8049;BME280;20935;42.660;23.342;2023-05-19T07:03:14;95052.97;;;19.45;77.76
8049;BME280;20935;42.660;23.342;2023-05-19T07:06:01;95051.75;;;19.46;77.15
8049;BME280;20935;42.660;23.342;2023-05-19T07:08:47;95057.19;;;19.46;77.10
8049;BME280;20935;42.660;23.342;2023-05-19T07:11:33;95055.97;;;19.47;77.55
8049;BME280;20935;42.660;23.342;2023-05-19T07:14:18;95050.88;;;19.49;77.24
8049;BME280;20935;42.660;23.342;2023-05-19T07:17:04;95060.97;;;19.48;76.83
8049;BME280;20935;42.660;23.342;2023-05-19T07:19:50;95065.66;;;19.48;77.45
8049;BME280;20935;42.660;23.342;2023-05-19T07:22:36;95064.47;;;19.49;77.41
8049;BME280;20935;42.660;23.342;2023-05-19T07:25:22;95069.47;;;19.50;77.26
8049;BME280;20935;42.660;23.342;2023-05-19T07:28:10;95063.13;;;19.53;77.30
8049;BME280;20935;42.660;23.342;2023-05-19T07:30:55;95063.91;;;19.54;77.32
8049;BME280;20935;42.660;23.342;2023-05-19T07:33:41;95072.03;;;19.54;77.51
8049;BME280;20935;42.660;23.342;2023-05-19T07:36:26;95067.81;;;19.53;77.86
8049;BME280;20935;42.660;23.342;2023-05-19T07:39:13;95066.63;;;19.54;77.73
8049;BME280;20935;42.660;23.342;2023-05-19T07:41:58;95061.47;;;19.56;77.93
8049;BME280;20935;42.660;23.342;2023-05-19T07:44:44;95065.28;;;19.58;78.01
8049;BME280;20935;42.660;23.342;2023-05-19T07:47:29;95064.81;;;19.60;77.92
8049;BME280;20935;42.660;23.342;2023-05-19T07:50:15;95060.16;;;19.60;77.75
8049;BME280;20935;42.660;23.342;2023-05-19T07:53:01;95063.63;;;19.61;77.64
8049;BME280;20935;42.660;23.342;2023-05-19T07:55:48;95060.47;;;19.62;77.95
8049;BME280;20935;42.660;23.342;2023-05-19T07:58:33;95065.16;;;19.62;77.95
8049;BME280;20935;42.660;23.342;2023-05-19T08:01:20;95062.44;;;19.62;77.84
8049;BME280;20935;42.660;23.342;2023-05-19T08:04:05;95058.19;;;19.61;77.88
8049;BME280;20935;42.660;23.342;2023-05-19T08:06:50;95065.91;;;19.62;78.12
8049;BME280;20935;42.660;23.342;2023-05-19T08:09:36;95057.31;;;19.64;77.79
8049;BME280;20935;42.660;23.342;2023-05-19T08:12:22;95065.03;;;19.65;77.99
8049;BME280;20935;42.660;23.342;2023-05-19T08:15:08;95060.03;;;19.64;77.68
8049;BME280;20935;42.660;23.342;2023-05-19T08:17:54;95054.91;;;19.66;77.64
8049;BME280;20935;42.660;23.342;2023-05-19T08:20:40;95062.59;;;19.67;77.58
8049;BME280;20935;42.660;23.342;2023-05-19T08:23:25;95059.13;;;19.67;77.81
8049;BME280;20935;42.660;23.342;2023-05-19T08:26:11;95057.94;;;19.68;77.80
8049;BME280;20935;42.660;23.342;2023-05-19T08:28:58;95054.44;;;19.67;77.50
8049;BME280;20935;42.660;23.342;2023-05-19T08:31:44;95055.53;;;19.70;77.41
8049;BME280;20935;42.660;23.342;2023-05-19T08:34:29;95048.88;;;19.71;77.43
8049;BME280;20935;42.660;23.342;2023-05-19T08:37:15;95053.13;;;19.72;77.33
8049;BME280;20935;42.660;23.342;2023-05-19T08:40:01;95051.94;;;19.73;77.31
8049;BME280;20935;42.660;23.342;2023-05-19T08:42:48;95054.66;;;19.73;77.50
8049;BME280;20935;42.660;23.342;2023-05-19T08:45:35;95049.22;;;19.73;77.32
8049;BME280;20935;42.660;23.342;2023-05-19T08:48:21;95056.91;;;19.75;77.40
8049;BME280;20935;42.660;23.342;2023-05-19T08:51:15;95047.56;;;19.76;77.31
8049;BME280;20935;42.660;23.342;2023-05-19T08:54:09;95048.31;;;19.76;77.06
8049;BME280;20935;42.660;23.342;2023-05-19T08:56:57;95051.78;;;19.77;77.20
8049;BME280;20935;42.660;23.342;2023-05-19T08:59:43;95049.06;;;19.77;76.98
8049;BME280;20935;42.660;23.342;2023-05-19T09:02:31;95048.66;;;19.78;77.07
8049;BME280;20935;42.660;23.342;2023-05-19T09:05:18;95047.88;;;19.78;76.96
8049;BME280;20935;42.660;23.342;2023-05-19T09:08:03;95045.16;;;19.78;76.88
8049;BME280;20935;42.660;23.342;2023-05-19T09:10:49;95043.63;;;19.77;77.03
8049;BME280;20935;42.660;23.342;2023-05-19T09:13:35;95044.69;;;19.79;77.00
8049;BME280;20935;42.660;23.342;2023-05-19T09:16:20;95040.50;;;19.78;77.20
8049;BME280;20935;42.660;23.342;2023-05-19T09:19:12;95033.53;;;19.77;77.25
8049;BME280;20935;42.660;23.342;2023-05-19T09:22:00;95032.75;;;19.77;77.08
8049;BME280;20935;42.660;23.342;2023-05-19T09:24:46;95025.81;;;19.76;77.37
8049;BME280;20935;42.660;23.342;2023-05-19T09:27:32;95022.19;;;19.79;77.35
8049;BME280;20935;42.660;23.342;2023-05-19T09:30:18;95024.91;;;19.79;77.33
8049;BME280;20935;42.660;23.342;2023-05-19T09:33:04;95027.97;;;19.81;77.37
8049;BME280;20935;42.660;23.342;2023-05-19T09:35:54;95026.00;;;19.81;77.27
8049;BME280;20935;42.660;23.342;2023-05-19T09:38:40;95023.28;;;19.81;77.17
8049;BME280;20935;42.660;23.342;2023-05-19T09:41:25;95030.25;;;19.82;77.17
8049;BME280;20935;42.660;23.342;2023-05-19T09:44:12;95028.25;;;19.83;77.14
8049;BME280;20935;42.660;23.342;2023-05-19T09:46:57;95025.84;;;19.85;77.05
8049;BME280;20935;42.660;23.342;2023-05-19T09:49:45;95023.91;;;19.85;77.15
8049;BME280;20935;42.660;23.342;2023-05-19T09:52:35;95022.72;;;19.86;77.13
8049;BME280;20935;42.660;23.342;2023-05-19T09:55:24;95023.75;;;19.89;77.37
8049;BME280;20935;42.660;23.342;2023-05-19T09:58:15;95014.09;;;19.88;77.39
8049;BME280;20935;42.660;23.342;2023-05-19T10:01:02;95014.84;;;19.88;77.05
8049;BME280;20935;42.660;23.342;2023-05-19T10:03:48;95002.78;;;19.89;77.23
8049;BME280;20935;42.660;23.342;2023-05-19T10:06:33;95006.41;;;19.86;77.17
8049;BME280;20935;42.660;23.342;2023-05-19T10:09:23;95009.28;;;19.92;77.48
8049;BME280;20935;42.660;23.342;2023-05-19T10:12:10;95006.88;;;19.94;77.41
8049;BME280;20935;42.660;23.342;2023-05-19T10:14:57;95010.34;;;19.94;77.35
8049;BME280;20935;42.660;23.342;2023-05-19T10:17:43;95002.94;;;19.95;77.38
8049;BME280;20935;42.660;23.342;2023-05-19T10:20:29;95004.78;;;19.98;77.50
8049;BME280;20935;42.660;23.342;2023-05-19T10:23:15;95002.81;;;19.98;77.61
8049;BME280;20935;42.660;23.342;2023-05-19T10:26:02;95001.16;;;20.01;77.48
8049;BME280;20935;42.660;23.342;2023-05-19T10:28:50;94999.50;;;20.03;77.37
